Latest Weather Observations for Lombadina

IDW60801

Issued at 7:33 pm WST Thursday 23 February 2017 (issued every 30 minutes, with the page automatically refreshed every 10 minutes)

About weather observations | Map of weather stations | Latest weather observations for WA | Other Formats
Station Details ID: 503016 Name: LOMBADINA AIRSTRIP Lat: -16.52 Lon: 122.92 Height: 42.0 m
Data from the previous 72 hours. | See also: Recent months for locations in Western Australia
Date/Time
WST
Temp
°C
App
Temp
°C
Dew
Point
°C
Rel
Hum
%
Delta-T
°C
Wind Press
QNH
hPa
Press
MSL
hPa
Rain since
9am
mm
Dir  Spd
km/h
Gust
km/h
Spd
kts
Gust
kts
23/07:30pm 28.9 35.3 26.9 89 1.4 WSW 7 15 4 8 1009.9 1009.6 0.0
23/07:00pm 29.1 35.0 26.7 87 1.7 WSW 9 19 5 10 1009.6 1009.3 0.0
23/06:30pm 29.3 35.4 26.5 85 2.0 WSW 7 15 4 8 1009.3 1009.0 0.0
23/06:00pm 29.8 35.2 26.6 83 2.3 WSW 11 20 6 11 1009.0 1008.6 0.0
23/05:30pm 30.5 36.0 26.7 80 2.7 W 11 22 6 12 1008.9 1008.5 0.0
23/05:00pm 30.8 35.6 26.3 77 3.2 W 13 24 7 13 1008.7 1008.3 0.0
23/04:30pm 32.2 37.5 26.5 72 4.1 WSW 11 22 6 12 1008.7 1008.3 0.0
23/04:00pm 31.8 36.1 26.1 72 4.1 W 15 24 8 13 1008.7 1008.3 0.0
23/03:30pm 32.5 37.3 26.3 70 4.5 W 13 20 7 11 1008.6 1008.2 0.0
23/03:00pm 32.9 37.5 25.9 66 5.0 W 13 20 7 11 1008.8 1008.4 0.0
23/02:30pm 33.7 38.8 26.7 67 5.1 WNW 13 20 7 11 1008.8 1008.4 0.0
23/02:00pm 33.7 38.7 26.5 66 5.2 W 13 20 7 11 1008.8 1008.4 0.0
23/01:30pm 33.6 38.6 26.6 67 5.1 W 13 22 7 12 1009.0 1008.6 0.0
23/01:00pm 33.7 38.8 26.7 67 5.1 W 13 22 7 12 1009.1 1008.7 0.0
23/12:30pm 33.7 38.6 25.9 63 5.6 W 11 24 6 13 1009.4 1009.1 0.0
23/12:00pm 33.5 38.7 26.8 68 4.9 W 13 20 7 11 1009.8 1009.5 0.0
23/11:30am 32.4 37.8 26.0 69 4.6 W 9 15 5 8 1010.2 1009.9 0.0
23/11:00am 34.3 39.0 23.9 54 7.3 E 6 15 3 8 1010.5 1010.2 0.0
23/10:30am 34.0 39.6 24.8 58 6.5 SSE 4 11 2 6 1010.9 1010.6 0.0
23/10:00am 32.8 37.8 24.8 62 5.6 SW 7 15 4 8 1011.4 1011.1 0.0
23/09:30am 31.0 35.4 25.1 71 4.2 SW 11 20 6 11 1011.5 1011.2 0.0
23/09:00am 31.6 37.2 25.7 71 4.2 SSW 7 11 4 6 1011.6 1011.3 0.0
23/08:30am 30.9 36.2 25.3 72 4.0 WSW 7 11 4 6 1011.6 1011.3 0.0
23/08:00am 30.2 36.1 25.9 78 3.1 SW 6 11 3 6 1011.6 1011.3 0.0
23/07:30am 28.8 34.4 25.8 84 2.1 SW 7 15 4 8 1011.5 1011.2 0.0
23/07:00am 27.9 33.8 25.9 89 1.4 SSW 6 9 3 5 1011.3 1011.0 0.0
23/06:30am 26.8 32.5 25.6 93 0.8 SSW 6 11 3 6 1011.1 1010.8 0.0
23/06:00am 26.1 31.5 25.2 95 0.6 SW 6 13 3 7 1010.7 1010.4 0.0
23/05:30am 26.2 31.5 25.2 94 0.7 SW 7 13 4 7 1010.7 1010.4 0.0
23/05:00am 26.2 31.7 25.3 95 0.6 SW 6 9 3 5 1010.5 1010.2 0.0
23/04:30am 26.1 32.2 25.6 97 0.4 SW 4 9 2 5 1010.3 1010.0 0.0
23/04:00am 26.0 32.0 25.5 97 0.4 SSW 4 7 2 4 1010.1 1009.8 0.0
23/03:30am 26.1 32.2 25.6 97 0.4 SW 4 7 2 4 1009.8 1009.5 0.0
23/03:00am 26.3 32.4 25.6 96 0.5 SW 4 7 2 4 1010.0 1009.7 0.0
23/02:30am 26.3 32.2 25.4 95 0.6 SW 4 7 2 4 1009.9 1009.6 0.0
23/02:00am 26.5 32.5 25.5 94 0.7 SW 4 7 2 4 1010.2 1009.9 0.0
23/01:30am 26.6 32.2 25.4 93 0.8 SW 6 7 3 4 1010.5 1010.2 0.0
23/01:00am 26.8 32.7 25.4 92 1.0 SW 4 7 2 4 1010.7 1010.4 0.0
23/12:30am 26.8 32.6 25.2 91 1.1 WSW 4 6 2 3 1011.1 1010.8 0.0
23/12:00am 27.1 33.0 25.3 90 1.3 SW 4 6 2 3 1011.7 1011.4 0.0
 
Date/Time
WST
Temp
°C
App
Temp
°C
Dew
Point
°C
Rel
Hum
%
Delta-T
°C
Wind Press
QNH
hPa
Press
MSL
hPa
Rain since
9am
mm
Dir  Spd
km/h
Gust
km/h
Spd
kts
Gust
kts
22/11:30pm 27.6 33.2 25.4 88 1.5 WSW 6 9 3 5 1012.0 1011.7 0.0
22/11:00pm 27.8 33.7 25.4 87 1.7 SW 4 9 2 5 1012.3 1012.0 0.0
22/10:30pm 27.8 33.2 25.2 86 1.8 WSW 6 9 3 5 1012.4 1012.1 0.0
22/10:00pm 27.8 33.4 25.4 87 1.7 W 6 9 3 5 1012.4 1012.1 0.0
22/09:30pm 27.8 33.7 25.4 87 1.7 WSW 4 7 2 4 1012.5 1012.2 0.0
22/09:00pm 27.9 33.4 25.3 86 1.8 WSW 6 9 3 5 1012.4 1012.1 0.0
22/08:30pm 27.8 33.2 25.2 86 1.8 WSW 6 9 3 5 1011.8 1011.5 0.0
22/08:00pm 28.0 33.4 25.2 85 2.0 WSW 6 7 3 4 1011.7 1011.4 0.0
22/07:30pm 28.1 33.5 25.1 84 2.1 W 6 9 3 5 1011.2 1010.9 0.0
22/07:00pm 28.4 33.7 25.0 82 2.4 WSW 6 9 3 5 1010.6 1010.3 0.0
22/06:30pm 28.6 33.7 25.0 81 2.5 WSW 7 15 4 8 1010.2 1009.9 0.0
22/06:00pm 29.1 33.8 24.9 78 2.9 W 9 17 5 9 1010.0 1009.7 0.0
22/05:30pm 29.4 33.2 24.7 76 3.3 W 13 22 7 12 1009.8 1009.5 0.0
22/05:00pm 30.0 33.5 24.9 74 3.6 W 15 22 8 12 1009.8 1009.5 0.0
22/04:30pm 30.6 34.3 24.5 70 4.3 W 13 24 7 13 1009.3 1009.0 0.0
22/04:00pm 31.2 34.6 24.1 66 5.0 W 13 20 7 11 1009.5 1009.2 0.0
22/03:30pm 31.1 34.6 24.2 66 4.8 W 13 22 7 12 1009.8 1009.5 0.0
22/03:00pm 31.2 34.4 24.3 66 4.8 W 15 28 8 15 1009.8 1009.5 0.0
22/02:30pm 31.8 34.2 23.6 62 5.7 W 17 26 9 14 1010.2 1009.9 0.0
22/02:00pm 32.0 35.1 23.5 60 5.9 WNW 13 22 7 12 1010.4 1010.1 0.0
22/01:30pm 32.0 34.3 22.7 58 6.4 W 15 22 8 12 1010.6 1010.3 0.0
22/01:00pm 32.0 34.1 23.8 62 5.7 WNW 19 30 10 16 1010.9 1010.6 0.0
22/12:30pm 31.9 34.5 24.0 63 5.5 WNW 17 30 9 16 1011.3 1011.0 0.0
22/12:00pm 31.6 35.1 24.2 65 5.2 W 13 24 7 13 1011.6 1011.3 0.0
22/11:30am 31.5 34.4 23.9 64 5.3 W 15 26 8 14 1012.0 1011.7 0.0
22/11:00am 32.3 36.0 24.6 64 5.4 WSW 13 24 7 13 1012.2 1011.9 0.0
22/10:30am 32.0 36.2 24.8 65 5.1 WSW 11 22 6 12 1012.5 1012.2 0.0
22/10:00am 31.0 34.6 24.4 68 4.6 W 13 20 7 11 1012.9 1012.6 0.0
22/09:30am 30.6 34.9 24.3 69 4.4 WSW 9 17 5 9 1013.0 1012.7 0.0
22/09:00am 30.1 34.7 24.7 73 3.8 W 9 17 5 9 1013.1 1012.8 0.2
22/08:30am 29.5 34.2 25.0 77 3.2 W 9 17 5 9 1013.1 1012.8 0.2
22/08:00am 29.4 34.8 25.4 79 2.8 W 7 17 4 9 1012.8 1012.5 0.2
22/07:30am 28.9 35.3 25.5 82 2.4 SW 2 7 1 4 1012.5 1012.2 0.2
22/07:00am 28.6 34.5 25.4 83 2.3 WSW 4 7 2 4 1012.3 1012.0 0.2
22/06:30am 27.6 34.4 25.6 89 1.4 CALM 0 0 0 0 1012.1 1011.8 0.2
22/06:00am 26.9 33.4 25.1 90 1.3 CALM 0 0 0 0 1011.8 1011.5 0.2
22/05:30am 27.3 33.3 24.9 87 1.7 WSW 2 6 1 3 1011.3 1011.0 0.2
22/05:00am 27.3 32.9 24.9 87 1.7 W 4 9 2 5 1011.2 1010.9 0.2
22/04:30am 27.3 32.4 24.7 86 1.8 WSW 6 11 3 6 1011.2 1010.9 0.2
22/04:00am 27.3 32.9 24.9 87 1.7 W 4 13 2 7 1011.0 1010.7 0.2
22/03:30am 27.3 32.6 24.9 87 1.7 W 6 9 3 5 1010.6 1010.3 0.2
22/03:00am 27.3 32.6 24.9 87 1.7 WNW 6 9 3 5 1010.3 1010.0 0.2
22/02:30am 26.9 32.5 24.9 89 1.4 W 4 7 2 4 1010.2 1009.9 0.2
22/02:00am 26.7 32.2 24.7 89 1.4 W 4 7 2 4 1010.3 1010.0 0.2
22/01:30am 26.6 32.2 24.8 90 1.3 WNW 4 7 2 4 1010.4 1010.1 0.2
22/01:00am 26.3 32.2 24.7 91 1.1 W 2 6 1 3 1010.7 1010.4 0.2
22/12:30am 26.5 32.8 24.7 90 1.3 CALM 0 4 0 2 1011.1 1010.8 0.2
22/12:00am 26.8 32.4 24.8 89 1.4 WSW 4 7 2 4 1011.3 1011.0 0.2
 
Date/Time
WST
Temp
°C
App
Temp
°C
Dew
Point
°C
Rel
Hum
%
Delta-T
°C
Wind Press
QNH
hPa
Press
MSL
hPa
Rain since
9am
mm
Dir  Spd
km/h
Gust
km/h
Spd
kts
Gust
kts
21/11:30pm 27.4 33.0 24.8 86 1.8 SW 4 7 2 4 1011.6 1011.3 0.2
21/11:00pm 27.6 33.2 24.8 85 2.0 W 4 7 2 4 1011.6 1011.3 0.2
21/10:30pm 27.0 33.3 24.8 88 1.5 CALM 0 0 0 0 1011.9 1011.6 0.2
21/10:00pm 27.5 33.3 24.6 84 2.0 W 2 6 1 3 1011.8 1011.5 0.2
21/09:30pm 27.6 32.9 24.4 83 2.2 W 4 7 2 4 1011.7 1011.4 0.2
21/09:00pm 27.8 33.3 24.6 83 2.2 W 4 7 2 4 1011.3 1011.0 0.2
21/08:30pm 28.1 33.2 24.7 82 2.4 W 6 13 3 7 1011.1 1010.8 0.2
21/08:00pm 28.0 33.5 24.6 82 2.4 W 4 7 2 4 1011.0 1010.7 0.2
21/07:30pm 28.1 33.1 24.5 81 2.5 NW 6 7 3 4 1011.0 1010.7 0.2
21/07:00pm 28.2 33.9 24.4 80 2.6 NW 2 6 1 3 1010.9 1010.6 0.2
21/06:30pm 28.8 33.7 24.4 77 3.1 WNW 6 9 3 5 1010.4 1010.1 0.2
21/06:00pm 29.2 33.4 24.1 74 3.5 NW 9 15 5 8 1009.9 1009.6 0.2
21/05:30pm 29.7 34.0 24.3 73 3.8 NW 9 17 5 9 1009.7 1009.4 0.2
21/05:00pm 30.0 33.9 24.9 74 3.6 NW 13 20 7 11 1009.5 1009.2 0.2
21/04:30pm 30.2 34.4 24.8 73 3.8 NW 11 19 6 10 1009.4 1009.1 0.2
21/04:00pm 30.5 34.4 24.9 72 3.9 NW 13 22 7 12 1009.3 1009.0 0.2
21/03:30pm 30.8 34.6 24.7 70 4.3 NW 13 20 7 11 1009.2 1008.8 0.2
21/03:00pm 30.3 34.1 24.7 72 3.9 NW 13 24 7 13 1009.3 1009.0 0.2
21/02:30pm 30.2 34.1 24.8 73 3.8 NW 13 22 7 12 1009.3 1009.0 0.2
21/02:00pm 29.7 33.4 24.6 74 3.6 WNW 13 19 7 10 1009.5 1009.2 0.2
21/01:30pm 29.0 34.1 25.6 82 2.4 NNW 9 20 5 11 1009.8 1009.5 0.2
21/01:00pm 29.8 33.6 24.7 74 3.6 NW 13 22 7 12 1010.1 1009.8 0.0
21/12:30pm 31.2 35.4 25.3 71 4.2 WNW 13 22 7 12 1010.3 1010.0 0.0
21/12:00pm 30.0 34.8 25.1 75 3.5 NW 9 15 5 8 1010.9 1010.6 0.0
21/11:30am 29.9 34.5 25.4 77 3.2 NNW 11 15 6 8 1011.3 1011.0 0.0
21/11:00am 30.0 36.0 25.5 77 3.2 ENE 4 9 2 5 1011.5 1011.2 0.0
21/10:30am 30.1 36.0 25.4 76 3.3 ENE 4 9 2 5 1011.9 1011.6 0.0
21/10:00am 29.7 35.5 25.2 77 3.2 E 4 7 2 4 1012.2 1011.9 0.0
21/09:30am 30.6 36.7 25.0 72 3.9 ENE 2 6 1 3 1012.4 1012.1 0.0
21/09:00am 29.6 36.0 24.9 76 3.3 CALM 0 6 0 3 1012.5 1012.2 0.0
21/08:30am 28.7 35.2 25.1 81 2.5 CALM 0 0 0 0 1012.4 1012.1 0.0
21/08:00am 28.5 34.8 25.3 83 2.3 S 2 7 1 4 1012.3 1012.0 0.0
21/07:30am 28.4 35.4 25.8 86 1.8 CALM 0 0 0 0 1012.0 1011.7 0.0
21/07:00am 27.6 34.7 26.0 91 1.1 CALM 0 0 0 0 1011.8 1011.5 0.0
21/06:30am 27.1 33.8 26.0 94 0.8 E 2 4 1 2 1011.4 1011.1 0.0
21/06:00am 26.6 33.3 25.9 96 0.5 ESE 2 6 1 3 1011.0 1010.7 0.0
21/05:30am 26.7 33.7 25.8 95 0.6 CALM 0 0 0 0 1010.5 1010.2 0.0
21/05:00am 26.7 33.7 25.8 95 0.6 CALM 0 0 0 0 1010.0 1009.7 0.0
21/04:30am 27.0 34.1 26.0 94 0.7 CALM 0 0 0 0 1009.7 1009.4 0.0
21/04:00am 26.8 33.8 25.8 94 0.7 CALM 0 0 0 0 1009.6 1009.3 0.0
21/03:30am 26.4 33.1 25.4 94 0.7 CALM 0 0 0 0 1009.3 1009.0 0.0
21/03:00am 26.5 33.1 25.3 93 0.8 CALM 0 4 0 2 1009.3 1009.0 0.0
21/02:30am 26.9 33.2 25.3 91 1.1 WSW 2 7 1 4 1009.2 1008.8 0.0
21/02:00am 26.9 33.5 25.3 91 1.1 CALM 0 4 0 2 1009.2 1008.8 0.0
21/01:30am 26.9 32.8 25.3 91 1.1 WSW 4 7 2 4 1009.4 1009.1 0.0
21/01:00am 26.9 32.8 25.3 91 1.1 WSW 4 7 2 4 1009.5 1009.2 0.0
21/12:30am 26.8 32.7 25.4 92 1.0 SW 4 7 2 4 1009.7 1009.4 0.0
21/12:00am 26.9 32.8 25.3 91 1.1 WSW 4 7 2 4 1009.8 1009.5 0.0
 
Date/Time
WST
Temp
°C
App
Temp
°C
Dew
Point
°C
Rel
Hum
%
Delta-T
°C
Wind Press
QNH
hPa
Press
MSL
hPa
Rain since
9am
mm
Dir  Spd
km/h
Gust
km/h
Spd
kts
Gust
kts
20/11:30pm 27.2 33.1 25.4 90 1.3 WSW 4 9 2 5 1009.9 1009.6 0.0
20/11:00pm 27.3 32.6 25.3 89 1.4 WSW 7 11 4 6 1010.2 1009.9 0.0
20/10:30pm 27.4 32.8 25.2 88 1.5 WSW 6 9 3 5 1010.4 1010.1 0.0
20/10:00pm 27.5 32.9 25.1 87 1.7 WSW 6 11 3 6 1010.2 1009.9 0.0
20/09:30pm 27.7 33.1 25.1 86 1.8 WSW 6 11 3 6 1010.2 1009.9 0.0
20/09:00pm 27.9 33.3 25.1 85 2.0 WSW 6 9 3 5 1009.8 1009.5 0.0
20/08:30pm 27.9 33.0 24.9 84 2.1 WSW 7 11 4 6 1009.9 1009.6 0.0
20/08:00pm 28.1 33.2 24.9 83 2.2 WSW 7 15 4 8 1010.3 1010.0 0.0

Other Formats:

Comma delimited format used in spreadsheet applications
http://www.bom.gov.au/fwo/IDW60801/IDW60801.99206.axf

JavaScript Object Notation format (JSON) in row-major order
http://www.bom.gov.au/fwo/IDW60801/IDW60801.99206.json